Wetterdaten der Wetterstation 52249 Eschweiler

Letzte Wetterlage 24.11.2014 18:12
Wetterdiagramm
Tabellarische Darstellung
Datum Temperatur Windchill Feuchte Luftdruck Windrichtung Windstärke Niederschlag
24.11.2014 18:12 4,4 °C 4,4 °C 92 % 1026,7 hPa 46 0.0 0,00 mm
24.11.2014 17:52 4,9 °C 4,9 °C 92 % 1026,4 hPa 46 0.0 0,00 mm
24.11.2014 17:32 5,4 °C 5,4 °C 90 % 1026,3 hPa 46 0.0 0,00 mm
24.11.2014 17:12 6,1 °C 6,1 °C 89 % 1026,3 hPa 46 0.0 0,00 mm
24.11.2014 16:52 6,7 °C 6,7 °C 87 % 1026,1 hPa 46 0.0 0,00 mm
24.11.2014 16:32 7,3 °C 7,3 °C 86 % 1026,1 hPa 46 0.0 0,00 mm
24.11.2014 16:12 7,8 °C 7,8 °C 85 % 1025,9 hPa 46 0.0 0,00 mm
24.11.2014 15:52 8,0 °C 8,0 °C 86 % 1025,8 hPa 46 0.0 0,00 mm
24.11.2014 15:32 8,6 °C 8,6 °C 83 % 1025,8 hPa 46 0.0 0,00 mm
24.11.2014 15:12 9,7 °C 9,7 °C 79 % 1025,7 hPa 38 0.4 0,00 mm
24.11.2014 14:52 10,1 °C 10,1 °C 76 % 1025,6 hPa 304 0.0 0,00 mm
24.11.2014 14:32 10,4 °C 10,4 °C 72 % 1025,5 hPa 302 0.0 0,00 mm
24.11.2014 14:12 10,4 °C 10,4 °C 73 % 1025,4 hPa 319 1.3 0,00 mm
24.11.2014 13:52 10,1 °C 10,1 °C 79 % 1025,4 hPa 49 0.4 0,00 mm
24.11.2014 13:32 10,3 °C 10,3 °C 80 % 1025,4 hPa 52 0.4 0,00 mm
24.11.2014 13:12 10,3 °C 10,3 °C 77 % 1025,4 hPa 342 0.4 0,00 mm
24.11.2014 12:52 10,1 °C 10,1 °C 83 % 1025,3 hPa 53 0.0 0,00 mm
24.11.2014 12:32 9,9 °C 9,9 °C 82 % 1025,3 hPa 45 0.4 0,00 mm
24.11.2014 12:12 9,8 °C 9,8 °C 87 % 1025,3 hPa 55 1.3 0,00 mm
24.11.2014 11:52 9,5 °C 9,5 °C 88 % 1025,5 hPa 29 1.3 0,00 mm
24.11.2014 11:32 9,4 °C 9,4 °C 91 % 1025,5 hPa 338 0.4 0,00 mm
24.11.2014 11:12 9,0 °C 9,0 °C 93 % 1025,4 hPa 355 0.4 0,00 mm
24.11.2014 10:52 8,9 °C 8,9 °C 94 % 1025,1 hPa 35 0.0 0,00 mm
24.11.2014 10:32 7,8 °C 7,8 °C 100 % 1025,0 hPa 305 0.0 0,00 mm
24.11.2014 10:12 6,3 °C 6,3 °C 99 % 1024,9 hPa 305 0.0 0,00 mm
Empfehlen Sie wetter.com
| Mehr
Neue Wetterwarnung

Neue Niederschlagsmeldung
Neue Meldung
Regen Liveticker
    sehr starker Regen/Gewitter
    starker Regen/Gewitter
    mäßiger bis starker Regen
    mäßiger Regen
    leichter bis mäßiger Regen
    kein Regen